MSC Bremen — A8LK7 — position and weather

sailwx.info

Track history (hours):
 
Tides and Currents Weather Stations Pressure Air Temp Water Temp Dewpoint Dewpoint Depression Visibility Wind Speed Wind Dir Waves Ship Positions

MSC Bremen

Last reported at 2014-Aug-26 03:03 UTC. Time now 2014-Aug-29 12:22 UTC.
Position S 24°13' W 046°26'.

Length 294 m; ; draft 13.7 m.

Type: Ship (hazmat cat A). MMSI: 636091270.

Date/timePositionNaut miles runAvg speedWind from/ knotsBaromVisibWave heightAir tempDewpointWater temp
2014-Aug-26 03:03S 24°13' W 046°26'816.3
2014-Aug-26 02:33S 24°06' W 046°23'9 9.0
2014-Aug-26 01:33S 23°58' W 046°18'4 0.3
2014-Aug-25 12:31S 23°55' W 046°21'0 0.0
2014-Aug-25 11:31S 23°55' W 046°21'0 0.0
2014-Aug-25 09:13S 23°55' W 046°21'0 0.0
2014-Aug-25 05:32S 23°55' W 046°21'3 3.1
2014-Aug-25 04:33S 23°57' W 046°19'8 7.7
2014-Aug-25 03:33S 24°04' W 046°22'7 6.9
2014-Aug-25 02:33S 24°11' W 046°23'1413.7
2014-Aug-25 01:33S 24°22' W 046°15'1817.7
2014-Aug-25 00:33S 24°23' W 045°55'2121.2
2014-Aug-24 23:33S 24°17' W 045°33'3021.1
2014-Aug-24 22:08S 24°09' W 045°01'  
Track history (hours):
 
Tides and Currents Weather Stations Pressure Air Temp Water Temp Dewpoint Dewpoint Depression Visibility Wind Speed Wind Dir Waves Ship Positions

MSC Bremen

Last reported at 2014-Aug-26 03:03 UTC. Time now 2014-Aug-29 12:22 UTC.
Position S 24°13' W 046°26'.

Length 294 m; ; draft 13.7 m.

Type: Ship (hazmat cat A). MMSI: 636091270.

Date/timePositionNaut miles runAvg speedWind from/ knotsBaromVisibWave heightAir tempDewpointWater temp
2014-Aug-26 03:03S 24°13' W 046°26'816.3
2014-Aug-26 02:33S 24°06' W 046°23'9 9.0
2014-Aug-26 01:33S 23°58' W 046°18'4 0.3
2014-Aug-25 12:31S 23°55' W 046°21'0 0.0
2014-Aug-25 11:31S 23°55' W 046°21'0 0.0
2014-Aug-25 09:13S 23°55' W 046°21'0 0.0
2014-Aug-25 05:32S 23°55' W 046°21'3 3.1
2014-Aug-25 04:33S 23°57' W 046°19'8 7.7
2014-Aug-25 03:33S 24°04' W 046°22'7 6.9
2014-Aug-25 02:33S 24°11' W 046°23'1413.7
2014-Aug-25 01:33S 24°22' W 046°15'1817.7
2014-Aug-25 00:33S 24°23' W 045°55'2121.2
2014-Aug-24 23:33S 24°17' W 045°33'3021.1
2014-Aug-24 22:08S 24°09' W 045°01'  

Dump ship's entire track history